TimePDT,TemperatureF,Dew PointF,Humidity,Sea Level PressureIn,VisibilityMPH,Wind Direction,Wind SpeedMPH,Gust SpeedMPH,PrecipitationIn,Events,Conditions,WindDirDegrees,DateUTC
12:10 AM,59.0,53.6,82,30.05,10.0,Calm,Calm,-,N/A,,Clear,0,2012-10-29 07:10:00
12:35 AM,57.2,53.6,88,30.05,10.0,Calm,Calm,-,N/A,,Clear,0,2012-10-29 07:35:00
12:55 AM,57.2,55.4,94,30.05,10.0,Calm,Calm,-,N/A,,Clear,0,2012-10-29 07:55:00
1:10 AM,57.2,53.6,88,30.04,10.0,Calm,Calm,-,N/A,,Clear,0,2012-10-29 08:10:00
1:35 AM,57.2,53.6,88,30.05,10.0,Calm,Calm,-,N/A,,Clear,0,2012-10-29 08:35:00
1:55 AM,55.4,53.6,94,30.05,10.0,Calm,Calm,-,N/A,,Partly Cloudy,0,2012-10-29 08:55:00
2:10 AM,55.4,53.6,94,30.05,10.0,Calm,Calm,-,N/A,,Partly Cloudy,0,2012-10-29 09:10:00
2:35 AM,55.4,51.8,88,30.05,10.0,SW,3.5,-,N/A,,Clear,230,2012-10-29 09:35:00
2:55 AM,55.4,51.8,88,30.06,10.0,Calm,Calm,-,N/A,,Clear,0,2012-10-29 09:55:00
3:15 AM,55.4,51.8,88,30.06,10.0,NW,3.5,-,N/A,,Partly Cloudy,320,2012-10-29 10:15:00
3:55 AM,55.4,51.8,88,30.06,10.0,Calm,Calm,-,N/A,,Clear,0,2012-10-29 10:55:00
4:15 AM,53.6,51.8,94,30.06,10.0,Calm,Calm,-,N/A,,Clear,0,2012-10-29 11:15:00
4:35 AM,55.4,50.0,82,30.06,10.0,Calm,Calm,-,N/A,,Clear,0,2012-10-29 11:35:00
4:55 AM,53.6,51.8,94,30.06,10.0,SW,3.5,-,N/A,,Clear,220,2012-10-29 11:55:00
5:15 AM,53.6,51.8,94,30.07,10.0,Calm,Calm,-,N/A,,Scattered Clouds,0,2012-10-29 12:15:00
5:30 AM,55.4,51.8,88,30.08,10.0,Calm,Calm,-,N/A,,Mostly Cloudy,0,2012-10-29 12:30:00
5:55 AM,55.4,53.6,94,30.08,10.0,SSE,3.5,-,N/A,,Overcast,160,2012-10-29 12:55:00
6:15 AM,53.6,53.6,100,30.08,10.0,South,3.5,-,N/A,,Overcast,190,2012-10-29 13:15:00
6:30 AM,55.4,53.6,94,30.08,7.0,SSW,3.5,-,N/A,,Overcast,200,2012-10-29 13:30:00
6:47 AM,53.6,53.6,100,30.08,4.0,SSW,3.5,-,N/A,,Overcast,200,2012-10-29 13:47:00
6:55 AM,53.6,53.6,100,30.08,3.0,Calm,Calm,-,N/A,,Overcast,0,2012-10-29 13:55:00
7:47 AM,53.6,53.6,100,30.10,0.1,SSW,3.5,-,N/A,Fog,Fog,200,2012-10-29 14:47:00
8:47 AM,53.6,53.6,100,30.12,0.1,SSE,3.5,-,N/A,Fog,Fog,150,2012-10-29 15:47:00
9:47 AM,55.4,55.4,100,30.12,1.2,South,4.6,-,N/A,,Overcast,190,2012-10-29 16:47:00
10:47 AM,55.4,55.4,100,30.12,2.5,West,3.5,-,N/A,,Overcast,260,2012-10-29 17:47:00
11:52 AM,59.0,55.4,88,30.11,5.0,NNE,3.5,-,N/A,,Mostly Cloudy,30,2012-10-29 18:52:00
12:30 PM,60.8,57.2,88,30.10,5.0,North,6.9,-,N/A,,Scattered Clouds,10,2012-10-29 19:30:00
12:55 PM,62.6,55.4,77,30.09,10.0,NNW,9.2,-,N/A,,Scattered Clouds,340,2012-10-29 19:55:00
1:47 PM,64.4,57.2,77,30.07,10.0,NNW,6.9,-,N/A,,Clear,340,2012-10-29 20:47:00
2:49 PM,68.0,57.2,68,30.06,10.0,North,6.9,-,N/A,,Clear,350,2012-10-29 21:49:00
3:49 PM,68.0,59.0,73,30.05,10.0,NNE,6.9,-,N/A,,Clear,30,2012-10-29 22:49:00
4:47 PM,69.8,55.4,60,30.05,10.0,North,6.9,-,N/A,,Clear,350,2012-10-29 23:47:00
5:47 PM,68.0,57.2,68,30.04,10.0,NNW,4.6,-,N/A,,Clear,330,2012-10-30 00:47:00
6:47 PM,62.6,55.4,77,30.06,10.0,NW,4.6,-,N/A,,Clear,320,2012-10-30 01:47:00
8:47 PM,59.0,53.6,82,30.07,10.0,North,8.1,-,N/A,,Clear,350,2012-10-30 03:47:00
9:15 PM,55.4,53.6,94,30.08,10.0,Calm,Calm,-,N/A,,Clear,0,2012-10-30 04:15:00
9:35 PM,55.4,53.6,94,30.08,10.0,Calm,Calm,-,N/A,,Clear,0,2012-10-30 04:35:00
9:55 PM,57.2,53.6,88,30.08,10.0,Calm,Calm,-,N/A,,Clear,0,2012-10-30 04:55:00
10:15 PM,55.4,53.6,94,30.08,10.0,Calm,Calm,-,N/A,,Partly Cloudy,0,2012-10-30 05:15:00
10:30 PM,55.4,53.6,94,30.08,10.0,Calm,Calm,-,N/A,,Clear,0,2012-10-30 05:30:00
10:55 PM,55.4,53.6,94,30.08,10.0,Calm,Calm,-,N/A,,Clear,0,2012-10-30 05:55:00
11:15 PM,55.4,53.6,94,30.07,10.0,Calm,Calm,-,N/A,,Clear,0,2012-10-30 06:15:00
11:30 PM,55.4,53.6,94,30.07,10.0,South,4.6,-,N/A,,Clear,170,2012-10-30 06:30:00
11:55 PM,55.4,51.8,88,30.06,10.0,Calm,Calm,-,N/A,,Clear,0,2012-10-30 06:55:00